createdAt,value
2022-09-28T00:00:01.793Z,0.109
2022-09-28T00:05:01.657Z,0.11
2022-09-28T00:10:01.647Z,0.113
2022-09-28T00:15:01.639Z,0.128
2022-09-28T00:20:01.651Z,0.171
2022-09-28T00:25:01.858Z,0.171
2022-09-28T00:30:01.706Z,0.17
2022-09-28T00:35:01.690Z,0.129
2022-09-28T00:40:01.660Z,0.123
2022-09-28T00:45:01.737Z,0.123
2022-09-28T00:50:01.883Z,0.121
2022-09-28T00:55:01.820Z,0.111
2022-09-28T01:00:01.717Z,0.116
2022-09-28T01:05:01.726Z,0.162
2022-09-28T01:10:01.688Z,0.162
2022-09-28T01:15:01.860Z,0.156
2022-09-28T01:20:01.785Z,0.115
2022-09-28T01:25:01.796Z,0.106
2022-09-28T01:30:01.727Z,0.107
2022-09-28T01:35:01.754Z,0.115
2022-09-28T01:40:01.900Z,0.122
2022-09-28T01:45:01.978Z,0.002
2022-09-28T01:50:01.804Z,0
2022-09-28T01:55:01.722Z,0
2022-09-28T02:00:01.741Z,0.043000000000000003
2022-09-28T02:05:02.052Z,0.121
2022-09-28T02:10:01.781Z,0.112
2022-09-28T02:15:01.762Z,0.123
2022-09-28T02:20:01.747Z,0.122
2022-09-28T02:25:01.784Z,0.123
2022-09-28T02:30:01.967Z,0.125
2022-09-28T02:35:01.836Z,0.17300000000000001
2022-09-28T02:40:01.749Z,0.17500000000000002
2022-09-28T02:45:01.783Z,0.17500000000000002
2022-09-28T02:50:01.833Z,0.132
2022-09-28T02:55:01.927Z,0.11
2022-09-28T03:00:01.830Z,0.11
2022-09-28T03:05:01.813Z,0.112
2022-09-28T03:10:01.777Z,0.109
2022-09-28T03:15:01.814Z,0.122
2022-09-28T03:20:01.988Z,0.17500000000000002
2022-09-28T03:25:01.863Z,0.17400000000000002
2022-09-28T03:30:01.897Z,0.17300000000000001
2022-09-28T03:35:01.845Z,0.124
2022-09-28T03:40:01.891Z,0.123
2022-09-28T03:45:01.992Z,0.121
2022-09-28T03:50:01.869Z,0.127
2022-09-28T03:55:01.809Z,0.113
2022-09-28T04:00:01.905Z,0.117
2022-09-28T04:05:01.863Z,0.16
2022-09-28T04:10:02.203Z,0.157
2022-09-28T04:15:02.011Z,0.163
2022-09-28T04:20:01.847Z,0.133
2022-09-28T04:25:01.866Z,0.019
2022-09-28T04:30:01.854Z,0
2022-09-28T04:35:02.037Z,0
2022-09-28T04:40:01.872Z,0
2022-09-28T04:45:01.879Z,0.099
2022-09-28T04:50:02.012Z,0.146
2022-09-28T04:55:01.882Z,0.14200000000000002
2022-09-28T05:00:02.062Z,0.133
2022-09-28T05:05:01.946Z,0.09
2022-09-28T05:10:01.901Z,0.089
2022-09-28T05:15:01.892Z,0.073
2022-09-28T05:20:01.947Z,0.062
2022-09-28T05:25:02.211Z,0.058
2022-09-28T05:30:01.953Z,8.476
2022-09-28T05:35:02.000Z,39.919000000000004
2022-09-28T05:40:01.916Z,42.407000000000004
2022-09-28T05:45:02.044Z,71.386
2022-09-28T05:50:02.117Z,112.318
2022-09-28T05:55:01.916Z,136.90200000000002
2022-09-28T06:00:01.941Z,157.917
2022-09-28T06:05:02.000Z,188.092
2022-09-28T06:10:02.111Z,232.596
2022-09-28T06:15:01.925Z,270.5
2022-09-28T06:20:02.069Z,282.612
2022-09-28T06:25:02.415Z,291.446
2022-09-28T06:30:02.435Z,384.716
2022-09-28T06:35:02.177Z,441.387
2022-09-28T06:40:02.087Z,492.822
2022-09-28T06:45:02.065Z,506.57800000000003
2022-09-28T06:50:01.986Z,518.816
2022-09-28T06:55:02.080Z,581.891
2022-09-28T07:00:02.175Z,632.0360000000001
2022-09-28T07:05:02.036Z,692.468
2022-09-28T07:10:01.992Z,732.306
2022-09-28T07:15:02.011Z,773.553
2022-09-28T07:20:11.270Z,808.849
2022-09-28T07:25:02.207Z,779.048
2022-09-28T07:30:02.142Z,876.8720000000001
2022-09-28T07:35:02.054Z,908.169
2022-09-28T07:40:01.978Z,885.912
2022-09-28T07:45:02.163Z,862.089
2022-09-28T07:50:02.043Z,841.965
2022-09-28T07:55:06.091Z,919.927
2022-09-28T08:00:02.054Z,952.525
2022-09-28T08:05:02.072Z,973.548
2022-09-28T08:10:02.187Z,972.844
2022-09-28T08:15:02.065Z,1062.916
2022-09-28T08:20:02.189Z,1081.887
2022-09-28T08:25:02.065Z,1180.119
2022-09-28T08:30:02.178Z,1173.071
2022-09-28T08:35:02.195Z,1186.237
2022-09-28T08:40:02.061Z,1251.121
2022-09-28T08:45:02.062Z,1285.202
2022-09-28T08:50:02.094Z,1376.659
2022-09-28T08:55:02.138Z,1511.541
2022-09-28T09:00:02.191Z,1555.595
2022-09-28T09:05:02.429Z,1545.1960000000001
2022-09-28T09:10:02.217Z,1453.747
2022-09-28T09:15:02.270Z,1417.159
2022-09-28T09:20:02.096Z,1472.729
2022-09-28T09:25:02.279Z,1552.109
2022-09-28T09:30:02.319Z,1528.9850000000001
2022-09-28T09:35:02.145Z,1533.239
2022-09-28T09:40:02.199Z,1566.125
2022-09-28T09:45:02.281Z,1670.5240000000001
2022-09-28T09:50:04.035Z,1696.3210000000001
2022-09-28T09:55:02.298Z,1742.2730000000001
2022-09-28T10:00:02.178Z,1889.914
2022-09-28T10:05:02.209Z,1886.617
2022-09-28T10:10:02.142Z,1744.618
2022-09-28T10:15:02.168Z,1755.147
2022-09-28T10:20:02.316Z,1773.498
2022-09-28T10:25:02.180Z,1770.252
2022-09-28T10:30:02.193Z,1818.993
2022-09-28T10:35:02.197Z,1746.904
2022-09-28T10:40:02.189Z,1680.204
2022-09-28T10:45:02.276Z,1681.058
2022-09-28T10:50:02.417Z,1678.555
2022-09-28T10:55:02.263Z,1637.528
2022-09-28T11:00:02.259Z,1705.3890000000001
2022-09-28T11:05:02.218Z,1752.314
2022-09-28T11:10:02.210Z,1772.2
2022-09-28T11:15:02.482Z,1725.337
2022-09-28T11:20:02.282Z,1737.045
2022-09-28T11:25:02.222Z,1807.1670000000001
2022-09-28T11:30:02.265Z,1742.145
2022-09-28T11:35:02.250Z,1487.1960000000001
2022-09-28T11:40:02.421Z,1448.364
2022-09-28T11:45:02.264Z,1475.107
2022-09-28T11:50:02.285Z,1470.935
2022-09-28T11:55:02.287Z,1306.012
2022-09-28T12:00:02.336Z,1362.8700000000001
2022-09-28T12:05:02.416Z,1334.545
2022-09-28T12:45:02.473Z,1088.613
2022-09-28T12:55:02.392Z,1075.805
2022-09-28T13:00:02.432Z,1114.781
2022-09-28T13:05:02.516Z,1084.7930000000001
2022-09-28T13:10:02.342Z,1130.986
2022-09-28T13:15:02.353Z,1106.786
2022-09-28T13:20:02.305Z,1022.144
2022-09-28T13:25:02.419Z,929.354
2022-09-28T13:30:02.622Z,901.929
2022-09-28T13:35:02.437Z,952.27
2022-09-28T13:40:02.343Z,941.107
2022-09-28T13:45:02.381Z,941.797
2022-09-28T13:50:02.318Z,925.554
2022-09-28T13:55:02.482Z,873.403
2022-09-28T14:00:02.556Z,913.966
2022-09-28T14:05:02.403Z,841.595
2022-09-28T14:10:02.344Z,875.061
2022-09-28T14:15:02.406Z,804.6220000000001
2022-09-28T14:20:02.523Z,691.163
2022-09-28T14:25:02.586Z,656.7040000000001
2022-09-28T14:30:02.464Z,573.904
2022-09-28T14:35:02.447Z,582.926
2022-09-28T14:40:02.387Z,548.397
2022-09-28T14:45:05.110Z,472.666
2022-09-28T14:50:02.651Z,407.89
2022-09-28T14:55:02.391Z,353.483
2022-09-28T15:00:02.485Z,324.867
2022-09-28T15:05:02.607Z,354.331
2022-09-28T15:10:02.403Z,292.13100000000003
2022-09-28T15:15:02.617Z,278.73900000000003
2022-09-28T15:20:02.414Z,265.732
2022-09-28T15:25:03.050Z,186.541
2022-09-28T15:30:02.430Z,160.052
2022-09-28T15:35:02.630Z,129.42600000000002
2022-09-28T15:40:02.741Z,107.267
2022-09-28T15:45:02.643Z,76.798
2022-09-28T15:50:02.453Z,51.7
2022-09-28T15:55:02.490Z,39.841
2022-09-28T16:00:02.568Z,45.931000000000004
2022-09-28T16:05:02.505Z,32.131
2022-09-28T16:10:02.822Z,23.896
2022-09-28T16:15:02.515Z,12.295
2022-09-28T16:20:02.633Z,0.049
2022-09-28T16:25:02.469Z,0.001
2022-09-28T16:30:02.487Z,0.001
2022-09-28T16:35:02.841Z,0.006
2022-09-28T16:40:02.703Z,0.048
2022-09-28T16:45:02.584Z,0.042
2022-09-28T16:50:02.500Z,0.053
2022-09-28T16:55:07.374Z,0.14300000000000002
2022-09-28T17:00:02.616Z,0.28700000000000003
2022-09-28T17:05:02.865Z,0.272
2022-09-28T17:10:02.595Z,0.134
2022-09-28T17:15:02.556Z,0.267
2022-09-28T17:20:02.530Z,0.229
2022-09-28T17:25:02.574Z,0.067
2022-09-28T17:30:02.673Z,0.226
2022-09-28T17:35:22.864Z,0.223
2022-09-28T17:40:02.707Z,0.215
2022-09-28T17:45:02.567Z,0.164
2022-09-28T17:50:02.711Z,0.137
2022-09-28T17:55:02.699Z,0.108
2022-09-28T18:00:02.573Z,0.107
2022-09-28T18:05:02.606Z,0.08
2022-09-28T18:10:02.767Z,0.082
2022-09-28T18:15:02.633Z,0.064
2022-09-28T18:20:02.794Z,0.049
2022-09-28T18:25:02.846Z,0.055
2022-09-28T18:30:02.604Z,0.044
2022-09-28T18:35:02.596Z,0.14100000000000001
2022-09-28T18:40:02.612Z,3.484
2022-09-28T18:45:02.833Z,0.749
2022-09-28T18:50:02.622Z,0.08
2022-09-28T18:55:02.618Z,0
2022-09-28T19:00:02.709Z,0.022
2022-09-28T19:05:02.596Z,0.084
2022-09-28T19:10:02.885Z,0.042
2022-09-28T19:15:02.879Z,0.01
2022-09-28T19:20:02.749Z,0.013000000000000001
2022-09-28T19:25:02.614Z,0.005
2022-09-28T19:30:02.708Z,0.436
2022-09-28T19:35:02.780Z,0.324
2022-09-28T19:40:02.679Z,0.305
2022-09-28T19:45:02.649Z,0.12
2022-09-28T19:50:02.707Z,0.121
2022-09-28T19:55:02.756Z,0.131
2022-09-28T20:00:03.674Z,0.323
2022-09-28T20:05:02.673Z,0.47300000000000003
2022-09-28T20:10:02.649Z,0.117
2022-09-28T20:15:02.716Z,0.107
2022-09-28T20:20:02.739Z,0.14
2022-09-28T20:25:02.916Z,0
2022-09-28T20:30:02.704Z,0.002
2022-09-28T20:35:02.685Z,0.015
2022-09-28T20:40:02.722Z,0.082
2022-09-28T20:45:02.717Z,0.07100000000000001
2022-09-28T20:50:02.886Z,0.08600000000000001
2022-09-28T20:55:02.763Z,0.114
2022-09-28T21:00:02.969Z,0.122
2022-09-28T21:05:02.694Z,0.116
2022-09-28T21:10:02.713Z,0.009000000000000001
2022-09-28T21:15:05.850Z,0.021
2022-09-28T21:20:02.803Z,0.029
2022-09-28T21:25:02.726Z,0.251
2022-09-28T21:30:02.758Z,0.5740000000000001
2022-09-28T21:35:02.728Z,0.598
2022-09-28T21:40:02.874Z,0.654
2022-09-28T21:45:02.785Z,0.663
2022-09-28T21:50:02.741Z,0.6910000000000001
2022-09-28T21:55:02.729Z,0.713
2022-09-28T22:00:02.806Z,1.075
2022-09-28T22:05:03.019Z,3.555
2022-09-28T22:10:03.076Z,3.373
2022-09-28T22:15:02.839Z,3.9
2022-09-28T22:20:02.776Z,4.208
2022-09-28T22:25:02.918Z,4.115
2022-09-28T22:30:03.061Z,4.32
2022-09-28T22:35:02.822Z,3.619
2022-09-28T22:40:02.917Z,3.388
2022-09-28T22:45:02.835Z,3.386
2022-09-28T22:50:02.992Z,3.372
2022-09-28T22:55:02.833Z,3.36
2022-09-28T23:00:02.872Z,3.37
2022-09-28T23:05:02.856Z,3.125
2022-09-28T23:10:02.961Z,1.111
2022-09-28T23:15:02.845Z,0.612
2022-09-28T23:20:02.847Z,0.599
2022-09-28T23:25:04.312Z,0.616
2022-09-28T23:30:03.054Z,0.615
2022-09-28T23:35:03.213Z,0.615
2022-09-28T23:40:02.853Z,0.611
2022-09-28T23:45:02.904Z,0.59
2022-09-28T23:50:03.112Z,0.599
2022-09-28T23:55:02.928Z,0.36
